Time;durP1;ratioP1;P1;durP2;ratioP2;P2;SDS_P1;SDS_P2;PMS_P1;PMS_P2;Temp;Humidity;BMP_temperature;BMP_pressure;BME280_temperature;BME280_humidity;BME280_pressure;Samples;Min_cycle;Max_cycle;Signal;HPM_P1;HPM_P2
2022/01/25 00:15:03;;;;;;;6.95;4.00;;;4.70;99.90;;;;;;4904480;29;20081;-83
2022/01/25 00:59:00;;;;;;;4.45;3.65;;;4.20;99.90;;;;;;4821436;29;20069;-83
2022/01/25 01:05:40;;;;;;;7.57;3.80;;;4.20;99.90;;;;;;4853223;29;20033;-83
2022/01/25 02:44:31;;;;;;;4.43;3.10;;;3.90;99.90;;;;;;4858156;29;20044;-82
2022/01/25 03:04:43;;;;;;;4.90;3.30;;;3.80;99.90;;;;;;5030675;28;20040;-81
2022/01/25 03:31:16;;;;;;;4.85;3.72;;;3.40;99.90;;;;;;5034155;28;20138;-83
2022/01/25 05:00:52;;;;;;;;;;;;;;;;;;;;;
2022/01/25 05:34:23;;;;;;;11.38;6.18;;;1.60;99.90;;;;;;4874529;29;20145;-86
2022/01/25 05:40:50;;;;;;;8.00;5.15;;;1.60;99.90;;;;;;4872731;29;20150;-87
2022/01/25 05:47:43;;;;;;;9.23;6.22;;;1.60;99.90;;;;;;4875133;29;20067;-87
2022/01/25 05:55:02;;;;;;;;;;;;;;;;;;;;;
2022/01/25 05:57:48;;;;;;;12.85;6.55;;;1.60;99.90;;;;;;4803231;29;20042;-87
2022/01/25 06:00:17;;;;;;;10.07;6.53;;;1.60;99.90;;;;;;4819787;29;20070;-87
2022/01/25 06:02:54;;;;;;;9.25;6.68;;;1.60;99.90;;;;;;4889094;29;20440;-86
2022/01/25 06:05:31;;;;;;;11.65;7.25;;;1.60;99.90;;;;;;4918033;29;20505;-87
2022/01/25 06:08:00;;;;;;;10.35;7.22;;;1.60;99.90;;;;;;5000734;28;20034;-87
2022/01/25 06:10:30;;;;;;;13.05;7.30;;;1.60;99.90;;;;;;4992060;28;20507;-87
2022/01/25 06:13:08;;;;;;;10.10;7.07;;;1.60;99.90;;;;;;5010975;28;20018;-87
2022/01/25 06:15:59;;;;;;;;;;;;;;;;;;;;;
2022/01/25 06:18:26;;;;;;;13.07;7.03;;;1.50;99.90;;;;;;5012018;28;20048;-87
2022/01/25 06:21:21;;;;;;;10.77;6.72;;;1.50;99.90;;;;;;5001057;28;20522;-87
2022/01/25 06:27:22;;;;;;;9.88;6.43;;;1.50;99.90;;;;;;4951679;28;20054;-87
2022/01/25 06:29:53;;;;;;;9.60;6.57;;;1.40;99.90;;;;;;4947530;28;20050;-87
2022/01/25 06:32:56;;;;;;;8.45;6.63;;;1.50;99.90;;;;;;5009769;28;20076;-86
2022/01/25 06:35:50;;;;;;;;;;;;;;;;;;;;;
2022/01/25 06:42:07;;;;;;;9.38;6.57;;;1.50;99.90;;;;;;4980773;28;20069;-88
2022/01/25 06:45:09;;;;;;;11.88;6.40;;;1.50;99.90;;;;;;5003578;28;20037;-88
2022/01/25 06:47:54;;;;;;;10.75;7.05;;;1.50;99.90;;;;;;5011949;28;20025;-88
2022/01/25 06:51:09;;;;;;;8.77;6.13;;;1.40;99.90;;;;;;4994417;28;20037;-88
2022/01/25 06:53:53;;;;;;;23.40;14.15;;;1.30;99.90;;;;;;4952598;28;20054;-87
2022/01/25 06:56:31;;;;;;;21.95;11.68;;;1.30;99.90;;;;;;4956933;28;20053;-87
2022/01/25 06:59:04;;;;;;;17.05;8.27;;;1.40;99.90;;;;;;5008506;28;20030;-86
2022/01/25 07:08:15;;;;;;;11.85;7.75;;;1.90;99.90;;;;;;4930775;28;20054;-89
2022/01/25 07:10:49;;;;;;;15.93;8.02;;;2.00;99.90;;;;;;5014186;28;20100;-88
2022/01/25 07:13:18;;;;;;;10.45;7.63;;;2.20;99.90;;;;;;4994731;28;20041;-85
2022/01/25 07:15:56;;;;;;;20.48;9.75;;;2.20;99.90;;;;;;5001902;28;20046;-84
2022/01/25 07:18:22;;;;;;;20.38;11.43;;;2.30;99.90;;;;;;4996261;28;20041;-85
2022/01/25 07:20:48;;;;;;;47.17;16.17;;;2.30;99.90;;;;;;5012325;28;20496;-86
2022/01/25 07:23:14;;;;;;;35.25;14.85;;;2.30;99.90;;;;;;5008314;28;20435;-86
2022/01/25 07:25:57;;;;;;;23.52;11.80;;;2.40;99.90;;;;;;5013218;28;20068;-83
2022/01/25 07:28:27;;;;;;;17.25;8.95;;;2.50;99.90;;;;;;4994026;28;20030;-87
2022/01/25 07:31:03;;;;;;;14.35;9.48;;;2.50;99.90;;;;;;5011267;28;20026;-84
2022/01/25 07:33:32;;;;;;;26.40;10.52;;;2.60;99.90;;;;;;4995115;28;20069;-85
2022/01/25 07:36:15;;;;;;;16.98;10.20;;;2.70;99.90;;;;;;5013723;28;20125;-84
2022/01/25 07:38:43;;;;;;;28.73;14.98;;;2.80;99.90;;;;;;5010828;28;20033;-86
2022/01/25 07:41:09;;;;;;;42.88;20.35;;;2.90;99.90;;;;;;5013169;28;20021;-85
2022/01/25 07:43:35;;;;;;;41.42;21.73;;;3.00;99.90;;;;;;5007802;28;20029;-85
2022/01/25 07:46:07;;;;;;;33.85;19.17;;;3.10;99.90;;;;;;5013362;28;20022;-85
2022/01/25 07:48:40;;;;;;;29.88;18.30;;;3.20;99.90;;;;;;5012302;28;20040;-86
2022/01/25 07:51:06;;;;;;;37.25;18.63;;;3.30;99.90;;;;;;4992316;28;20037;-85
2022/01/25 07:53:43;;;;;;;25.73;12.68;;;3.40;99.90;;;;;;4994183;28;20080;-85
2022/01/25 07:59:00;;;;;;;37.17;12.07;;;3.60;99.90;;;;;;5009341;28;20033;-86
2022/01/25 08:01:26;;;;;;;25.10;13.40;;;3.60;99.90;;;;;;5012016;28;20026;-85
2022/01/25 08:04:03;;;;;;;33.60;13.77;;;3.70;99.90;;;;;;4992304;28;20030;-85
2022/01/25 08:06:32;;;;;;;34.75;16.67;;;3.80;99.90;;;;;;4994673;28;20049;-85
2022/01/25 08:09:00;;;;;;;18.77;11.15;;;3.80;99.90;;;;;;5012179;28;20396;-85
2022/01/25 08:11:28;;;;;;;25.08;11.60;;;3.90;99.90;;;;;;4993166;28;20121;-85
2022/01/25 08:14:01;;;;;;;27.75;14.65;;;4.00;99.90;;;;;;5008081;28;20029;-86
2022/01/25 08:16:27;;;;;;;20.75;12.02;;;4.10;99.90;;;;;;4998980;28;20064;-87
2022/01/25 08:19:02;;;;;;;20.80;12.82;;;4.10;99.90;;;;;;5014374;28;20029;-85
2022/01/25 08:21:41;;;;;;;;;;;;;;;;;;;;;
2022/01/25 08:24:13;;;;;;;30.20;13.43;;;4.20;99.90;;;;;;5026235;28;20036;-86
2022/01/25 08:26:42;;;;;;;25.60;10.82;;;4.30;99.90;;;;;;5031600;28;20028;-86
2022/01/25 08:29:24;;;;;;;34.78;13.10;;;4.30;99.90;;;;;;5030938;28;20035;-86
2022/01/25 08:31:53;;;;;;;18.90;12.43;;;4.40;99.90;;;;;;5031207;28;20064;-86
2022/01/25 08:34:42;;;;;;;20.48;11.45;;;4.40;99.90;;;;;;5031458;28;20030;-86
2022/01/25 08:37:07;;;;;;;22.95;12.65;;;4.50;99.90;;;;;;5026745;28;20034;-85
2022/01/25 08:39:52;;;;;;;14.93;9.50;;;4.60;99.90;;;;;;5030369;28;20025;-85
2022/01/25 08:42:20;;;;;;;26.15;12.63;;;4.70;99.90;;;;;;5009624;28;20033;-86
2022/01/25 08:44:46;;;;;;;23.88;13.70;;;4.80;99.90;;;;;;5012007;28;20116;-85
2022/01/25 08:47:33;;;;;;;37.90;18.83;;;4.90;99.90;;;;;;5013384;28;20639;-85
2022/01/25 08:49:59;;;;;;;29.38;14.30;;;4.90;99.90;;;;;;5028829;28;20116;-85
2022/01/25 08:52:28;;;;;;;16.45;11.00;;;5.00;99.90;;;;;;5027842;28;20151;-85
2022/01/25 08:54:59;;;;;;;24.02;13.45;;;5.20;99.90;;;;;;5027402;28;20570;-85
2022/01/25 08:57:26;;;;;;;21.63;13.13;;;5.20;99.90;;;;;;5028211;28;20079;-85
2022/01/25 08:59:51;;;;;;;19.45;12.13;;;5.30;99.90;;;;;;5030560;28;20543;-84
2022/01/25 09:02:20;;;;;;;20.25;11.13;;;5.40;99.90;;;;;;5029901;28;20097;-84
2022/01/25 09:04:46;;;;;;;15.93;8.73;;;5.50;99.90;;;;;;5029234;28;20037;-84
2022/01/25 09:07:20;;;;;;;25.58;11.63;;;5.60;99.90;;;;;;5012535;28;20044;-84
2022/01/25 09:09:48;;;;;;;27.05;13.82;;;5.70;99.90;;;;;;5012702;28;20025;-84
2022/01/25 09:12:14;;;;;;;10.43;8.25;;;5.80;99.90;;;;;;5012385;28;20116;-85
2022/01/25 09:14:40;;;;;;;16.33;8.50;;;5.90;99.90;;;;;;5029744;28;20133;-85
2022/01/25 09:17:09;;;;;;;21.42;12.27;;;5.90;99.90;;;;;;5030285;28;20044;-85
2022/01/25 09:19:38;;;;;;;22.20;11.35;;;6.00;99.90;;;;;;5030487;28;20032;-83
2022/01/25 09:22:05;;;;;;;22.75;13.30;;;6.10;99.90;;;;;;5027397;28;20029;-84
2022/01/25 09:24:31;;;;;;;14.13;9.43;;;6.20;99.90;;;;;;5029189;28;20021;-85
2022/01/25 09:26:57;;;;;;;14.05;9.43;;;6.30;99.90;;;;;;5029624;28;20022;-84
2022/01/25 09:29:23;;;;;;;15.38;9.82;;;6.30;99.90;;;;;;5026758;28;20028;-84
2022/01/25 09:31:50;;;;;;;27.98;13.02;;;6.40;99.90;;;;;;5030910;28;20037;-84
2022/01/25 09:34:16;;;;;;;23.42;11.68;;;6.50;99.90;;;;;;5030082;28;20029;-83
2022/01/25 09:36:42;;;;;;;17.58;10.30;;;6.60;99.90;;;;;;5010116;28;20388;-86
2022/01/25 09:39:08;;;;;;;17.15;9.77;;;6.80;99.90;;;;;;5029659;28;20116;-87
2022/01/25 09:41:34;;;;;;;15.25;9.45;;;6.90;99.90;;;;;;5030103;28;20108;-85
2022/01/25 09:44:00;;;;;;;18.83;10.95;;;6.90;99.90;;;;;;5028901;28;20080;-86
2022/01/25 09:46:25;;;;;;;25.15;13.95;;;6.90;99.90;;;;;;5030853;28;20021;-84
2022/01/25 21:18:56;;;;;;;45.70;24.73;;;4.90;99.90;;;;;;5143162;27;20117;-81
2022/01/25 21:21:28;;;;;;;41.35;26.48;;;4.70;99.90;;;;;;5140970;27;20024;-82
2022/01/25 21:24:02;;;;;;;60.42;35.85;;;4.70;99.90;;;;;;5133015;27;20023;-81
2022/01/25 21:26:38;;;;;;;41.92;26.88;;;4.80;99.90;;;;;;5140162;27;20029;-81
2022/01/25 21:29:11;;;;;;;42.75;26.27;;;4.80;99.90;;;;;;5140691;27;20045;-81
2022/01/25 21:31:37;;;;;;;65.18;37.90;;;4.80;99.90;;;;;;5140079;27;20016;-80
2022/01/25 21:34:03;;;;;;;42.00;27.10;;;4.90;99.90;;;;;;5139106;27;20077;-80
2022/01/25 21:36:39;;;;;;;46.38;25.55;;;4.90;99.90;;;;;;5138240;27;20470;-78
2022/01/25 21:39:06;;;;;;;34.45;23.90;;;4.80;99.90;;;;;;5134387;27;20685;-79
2022/01/25 21:41:42;;;;;;;40.72;25.30;;;4.80;99.90;;;;;;5138917;27;20050;-79
2022/01/25 21:44:08;;;;;;;43.50;25.77;;;4.80;99.90;;;;;;5137348;27;20028;-80
2022/01/25 21:46:44;;;;;;;41.17;25.10;;;4.70;99.90;;;;;;5118399;27;20024;-80
2022/01/25 21:49:18;;;;;;;45.90;25.90;;;4.70;99.90;;;;;;5136886;27;20604;-80
2022/01/25 21:51:50;;;;;;;47.83;26.92;;;4.70;99.90;;;;;;5140318;27;20027;-79
2022/01/25 21:54:22;;;;;;;44.70;27.10;;;4.60;99.90;;;;;;5140245;27;20031;-80
2022/01/25 21:56:54;;;;;;;42.03;26.48;;;4.50;99.90;;;;;;5130537;27;20062;-81
2022/01/25 21:59:20;;;;;;;38.50;24.92;;;4.40;99.90;;;;;;5135931;27;20020;-81
2022/01/25 22:01:46;;;;;;;42.85;26.23;;;4.30;99.90;;;;;;5130788;27;20938;-81
2022/01/25 22:04:15;;;;;;;40.70;25.55;;;4.30;99.90;;;;;;5137244;27;20057;-81
2022/01/25 22:06:52;;;;;;;47.22;27.52;;;4.20;99.90;;;;;;5139341;27;20027;-81
2022/01/25 22:09:22;;;;;;;50.72;26.85;;;4.10;99.90;;;;;;5139734;27;20019;-80
2022/01/25 22:11:52;;;;;;;42.40;25.15;;;4.10;99.90;;;;;;5129042;27;20023;-84
2022/01/25 22:14:33;;;;;;;37.03;24.27;;;4.00;99.90;;;;;;5139405;27;20670;-82
2022/01/25 22:17:14;;;;;;;39.15;25.75;;;3.90;99.90;;;;;;5136612;27;20046;-81
2022/01/25 22:19:47;;;;;;;55.83;28.23;;;3.90;99.90;;;;;;5134994;27;20027;-83
2022/01/25 22:22:15;;;;;;;67.47;32.55;;;3.80;99.90;;;;;;5132077;27;20035;-80
2022/01/25 22:24:44;;;;;;;44.97;29.75;;;3.70;99.90;;;;;;5129702;27;20087;-80
2022/01/25 22:27:25;;;;;;;;;;;;;;;;;;;;;
2022/01/25 22:30:12;;;;;;;51.70;30.57;;;3.50;99.90;;;;;;5120632;27;20016;-80
2022/01/25 22:32:57;;;;;;;51.47;30.42;;;3.40;99.90;;;;;;5114935;27;20035;-80
2022/01/25 22:36:14;;;;;;;47.38;28.92;;;3.30;99.90;;;;;;5115557;27;20094;-81
2022/01/25 22:39:16;;;;;;;48.08;28.02;;;3.20;99.90;;;;;;5102283;27;20035;-80
2022/01/25 22:41:42;;;;;;;51.72;27.77;;;3.10;99.90;;;;;;5079141;27;20035;-80
2022/01/25 22:44:21;;;;;;;46.90;29.13;;;3.10;99.90;;;;;;5115880;27;20035;-79
2022/01/25 22:47:14;;;;;;;44.08;27.95;;;3.00;99.90;;;;;;5111491;27;20047;-82
2022/01/25 22:49:53;;;;;;;47.92;26.85;;;3.00;99.90;;;;;;5114123;27;20046;-82
2022/01/25 22:52:40;;;;;;;47.50;26.92;;;3.00;99.90;;;;;;5107718;27;20016;-80
2022/01/25 22:55:31;;;;;;;49.55;29.38;;;3.00;99.90;;;;;;5116087;27;20487;-80
2022/01/25 22:58:39;;;;;;;46.08;28.05;;;3.00;99.90;;;;;;5111821;27;20027;-80
2022/01/25 23:01:48;;;;;;;;;;;;;;;;;;;;;
2022/01/25 23:04:47;;;;;;;42.40;27.40;;;2.90;99.90;;;;;;5118237;27;20474;-81
2022/01/25 23:07:58;;;;;;;72.20;38.70;;;2.80;99.90;;;;;;5113212;27;20020;-82
2022/01/25 23:10:40;;;;;;;62.97;32.63;;;2.80;99.90;;;;;;5095924;27;20489;-81
2022/01/25 23:22:38;;;;;;;44.60;27.30;;;2.60;99.90;;;;;;5114093;27;20084;-81
2022/01/25 23:45:53;;;;;;;50.63;29.67;;;2.50;99.90;;;;;;4887466;29;20038;-82
2022/01/25 23:49:22;;;;;;;57.67;30.73;;;2.50;99.90;;;;;;4973263;28;20052;-82
